Time;durP1;ratioP1;P1;durP2;ratioP2;P2;SDS_P1;SDS_P2;PMS_P1;PMS_P2;Temp;Humidity;BMP_temperature;BMP_pressure;BME280_temperature;BME280_humidity;BME280_pressure;Samples;Min_cycle;Max_cycle;Signal;HPM_P1;HPM_P2
2022/05/11 00:00:21;;;;;;;7.33;6.60;;;17.20;99.90;;;;;;5033122;28;20940;-68
2022/05/11 00:02:48;;;;;;;9.97;6.80;;;17.30;99.90;;;;;;5033204;28;20663;-69
2022/05/11 00:05:15;;;;;;;8.97;6.70;;;17.30;99.90;;;;;;5032938;28;20436;-68
2022/05/11 00:07:42;;;;;;;8.77;6.97;;;17.30;99.90;;;;;;5033213;28;20427;-70
2022/05/11 00:10:12;;;;;;;9.50;7.10;;;17.30;99.90;;;;;;5034334;28;20198;-68
2022/05/11 00:12:40;;;;;;;8.50;6.80;;;17.30;99.90;;;;;;5032989;28;20428;-70
2022/05/11 00:15:12;;;;;;;7.70;6.33;;;17.20;99.90;;;;;;5032661;28;20459;-69
2022/05/11 00:17:40;;;;;;;8.37;6.73;;;17.20;99.90;;;;;;5032862;28;20521;-70
2022/05/11 00:20:07;;;;;;;9.30;6.30;;;17.20;99.90;;;;;;5033052;28;20454;-68
2022/05/11 00:22:38;;;;;;;9.77;7.07;;;17.10;99.90;;;;;;5033205;28;20435;-70
2022/05/11 00:25:06;;;;;;;9.03;6.67;;;17.10;99.90;;;;;;5033075;28;20503;-68
2022/05/11 00:27:32;;;;;;;8.80;6.57;;;17.00;99.90;;;;;;5032806;28;20444;-68
2022/05/11 00:30:02;;;;;;;10.73;7.50;;;17.00;99.90;;;;;;5032398;28;20439;-68
2022/05/11 00:32:28;;;;;;;6.67;5.90;;;17.00;99.90;;;;;;5032798;28;20486;-70
2022/05/11 00:34:54;;;;;;;8.77;6.53;;;17.00;99.90;;;;;;5032645;28;20492;-69
2022/05/11 00:37:25;;;;;;;9.57;6.67;;;17.00;99.90;;;;;;5033215;28;20520;-70
2022/05/11 00:39:51;;;;;;;10.17;7.83;;;17.00;99.90;;;;;;5032422;28;20439;-68
2022/05/11 00:42:17;;;;;;;8.40;6.60;;;16.90;99.90;;;;;;5032560;28;20814;-70
2022/05/11 00:44:43;;;;;;;9.80;7.20;;;16.90;99.90;;;;;;5032502;28;20487;-68
2022/05/11 00:47:41;;;;;;;10.90;7.47;;;16.90;99.90;;;;;;5032535;28;20502;-68
2022/05/11 00:50:14;;;;;;;9.60;7.23;;;16.90;99.90;;;;;;5028843;28;20443;-70
2022/05/11 00:52:51;;;;;;;9.33;6.73;;;16.90;99.90;;;;;;5032422;28;20542;-70
2022/05/11 00:55:35;;;;;;;7.23;6.13;;;16.90;99.90;;;;;;5032754;28;20450;-71
2022/05/11 00:58:27;;;;;;;9.43;6.83;;;16.90;99.90;;;;;;5032615;28;20474;-68
2022/05/11 01:00:54;;;;;;;11.43;7.13;;;16.90;99.90;;;;;;5032484;28;20489;-68
2022/05/11 01:03:30;;;;;;;10.70;6.93;;;16.90;99.90;;;;;;5032353;28;20422;-68
2022/05/11 01:05:59;;;;;;;13.10;7.60;;;16.80;99.90;;;;;;5032370;28;20500;-70
2022/05/11 01:08:27;;;;;;;7.40;6.50;;;16.80;99.90;;;;;;5032272;28;20412;-70
2022/05/11 01:10:56;;;;;;;10.87;7.40;;;16.80;99.90;;;;;;5032015;28;20451;-70
2022/05/11 01:13:23;;;;;;;9.57;6.43;;;16.80;99.90;;;;;;5032343;28;20419;-68
2022/05/11 01:15:56;;;;;;;11.17;6.80;;;16.80;99.90;;;;;;5032348;28;20440;-70
2022/05/11 01:18:25;;;;;;;10.27;7.13;;;16.80;99.90;;;;;;5031987;28;20919;-70
2022/05/11 01:20:52;;;;;;;10.07;7.03;;;16.80;99.90;;;;;;5032409;28;20534;-68
2022/05/11 01:23:48;;;;;;;10.93;7.40;;;16.80;99.90;;;;;;5032527;28;20418;-68
2022/05/11 01:26:18;;;;;;;10.00;6.60;;;16.80;99.90;;;;;;5031971;28;20573;-70
2022/05/11 01:28:49;;;;;;;9.87;7.33;;;16.80;99.90;;;;;;5031924;28;20407;-70
2022/05/11 01:31:18;;;;;;;10.63;7.00;;;16.80;99.90;;;;;;5032497;28;20420;-70
2022/05/11 01:33:50;;;;;;;8.83;6.73;;;16.80;99.90;;;;;;5031885;28;20955;-68
2022/05/11 01:36:30;;;;;;;9.33;6.70;;;16.70;99.90;;;;;;5032314;28;20407;-70
2022/05/11 01:38:57;;;;;;;10.63;6.07;;;16.60;99.90;;;;;;5031982;28;20565;-68
2022/05/11 01:41:31;;;;;;;11.30;7.40;;;16.60;99.90;;;;;;5032111;28;20419;-70
2022/05/11 01:44:05;;;;;;;8.87;6.80;;;16.60;99.90;;;;;;5032132;28;20908;-68
2022/05/11 01:47:02;;;;;;;10.37;7.57;;;16.50;99.90;;;;;;5032264;28;20430;-68
2022/05/11 01:49:31;;;;;;;11.30;6.80;;;16.50;99.90;;;;;;5031975;28;20451;-70
2022/05/11 01:51:58;;;;;;;9.57;7.53;;;16.50;99.90;;;;;;5034395;28;20426;-68
2022/05/11 01:54:30;;;;;;;8.43;7.23;;;16.50;99.90;;;;;;5035891;28;20454;-70
2022/05/11 01:56:59;;;;;;;10.10;7.47;;;16.40;99.90;;;;;;5035479;28;20874;-68
2022/05/11 01:59:27;;;;;;;9.70;7.63;;;16.40;99.90;;;;;;5035381;28;20450;-68
2022/05/11 02:02:00;;;;;;;9.73;6.83;;;16.40;99.90;;;;;;5035027;28;20419;-69
2022/05/11 02:09:56;;;;;;;7.97;5.83;;;16.20;99.90;;;;;;5037106;28;20947;-68
2022/05/11 02:12:24;;;;;;;9.57;6.53;;;16.20;99.90;;;;;;5035366;28;20399;-68
2022/05/11 02:14:51;;;;;;;10.20;7.20;;;16.20;99.90;;;;;;5035191;28;20510;-68
2022/05/11 02:17:20;;;;;;;12.27;6.77;;;16.10;99.90;;;;;;5036705;28;20960;-68
2022/05/11 02:19:45;;;;;;;9.83;6.77;;;16.10;99.90;;;;;;5035224;28;20554;-68
2022/05/11 02:22:24;;;;;;;8.97;7.67;;;16.10;99.90;;;;;;5035068;28;20412;-68
2022/05/11 02:24:50;;;;;;;13.20;7.37;;;16.10;99.90;;;;;;5034717;28;20260;-68
2022/05/11 02:27:17;;;;;;;8.77;6.23;;;16.00;99.90;;;;;;5035076;28;20412;-68
2022/05/11 02:29:43;;;;;;;10.07;7.70;;;16.00;99.90;;;;;;5034999;28;20209;-68
2022/05/11 02:32:10;;;;;;;10.27;7.13;;;16.00;99.90;;;;;;5035300;28;20420;-69
2022/05/11 02:37:31;;;;;;;10.80;7.43;;;15.90;99.90;;;;;;5036349;28;20509;-68
2022/05/11 02:40:12;;;;;;;8.33;7.00;;;15.80;99.90;;;;;;5034686;28;20539;-70
2022/05/11 02:42:38;;;;;;;9.13;6.10;;;15.80;99.90;;;;;;5034934;28;20928;-69
2022/05/11 02:45:08;;;;;;;9.37;6.90;;;15.80;99.90;;;;;;5034568;28;20937;-70
2022/05/11 02:47:37;;;;;;;9.07;6.83;;;15.80;99.90;;;;;;5035898;28;20417;-70
2022/05/11 02:50:05;;;;;;;8.53;6.57;;;15.80;99.90;;;;;;5034617;28;20447;-68
2022/05/11 02:52:33;;;;;;;10.50;6.63;;;15.80;99.90;;;;;;5035749;28;20416;-68
2022/05/11 02:55:03;;;;;;;8.17;6.20;;;15.80;99.90;;;;;;5034638;28;20483;-70
2022/05/11 02:57:29;;;;;;;7.37;6.20;;;15.80;99.90;;;;;;5034456;28;20976;-68
2022/05/11 02:59:59;;;;;;;8.57;6.20;;;15.80;99.90;;;;;;5034375;28;20466;-70
2022/05/11 03:02:25;;;;;;;9.27;6.33;;;15.80;99.90;;;;;;5033863;28;20442;-69
2022/05/11 03:04:52;;;;;;;9.27;5.97;;;15.70;99.90;;;;;;5034234;28;20452;-70
2022/05/11 03:07:21;;;;;;;8.77;7.20;;;15.70;99.90;;;;;;5034442;28;20794;-68
2022/05/11 03:09:52;;;;;;;10.67;7.80;;;15.70;99.90;;;;;;5034425;28;20948;-70
2022/05/11 03:12:27;;;;;;;8.20;5.87;;;15.80;99.90;;;;;;5034284;28;20917;-70
2022/05/11 03:14:59;;;;;;;9.60;7.20;;;15.80;99.90;;;;;;5034243;28;20497;-69
2022/05/11 03:17:28;;;;;;;7.67;6.40;;;15.80;99.90;;;;;;5034596;28;20914;-68
2022/05/11 03:19:55;;;;;;;9.60;6.40;;;15.90;99.90;;;;;;5034107;28;20543;-70
2022/05/11 03:22:21;;;;;;;11.20;7.73;;;15.90;99.90;;;;;;5034558;28;20937;-70
2022/05/11 03:24:47;;;;;;;6.87;5.77;;;15.90;99.90;;;;;;5033795;28;20455;-68
2022/05/11 03:27:13;;;;;;;10.50;6.60;;;15.90;99.90;;;;;;5033827;28;20435;-71
2022/05/11 03:29:44;;;;;;;7.43;6.27;;;15.90;99.90;;;;;;5033846;28;20202;-70
2022/05/11 03:34:56;;;;;;;7.93;6.60;;;15.90;99.90;;;;;;5035504;28;20462;-69
2022/05/11 03:37:33;;;;;;;10.90;7.80;;;15.90;99.90;;;;;;5034275;28;20472;-70
2022/05/11 03:40:00;;;;;;;9.97;6.33;;;15.80;99.90;;;;;;5033566;28;20474;-68
2022/05/11 03:42:40;;;;;;;10.73;6.77;;;15.80;99.90;;;;;;5033566;28;20498;-69
2022/05/11 03:45:19;;;;;;;7.77;6.30;;;15.80;99.90;;;;;;5033854;28;20443;-70
2022/05/11 03:47:46;;;;;;;10.63;7.43;;;15.80;99.90;;;;;;5033578;28;20436;-68
2022/05/11 03:50:14;;;;;;;9.60;6.80;;;15.80;99.90;;;;;;5033285;28;20987;-68
2022/05/11 03:52:41;;;;;;;12.60;7.40;;;15.70;99.90;;;;;;5033100;28;20435;-70
2022/05/11 03:55:10;;;;;;;7.93;6.67;;;15.70;99.90;;;;;;5033239;28;20855;-70
2022/05/11 03:57:41;;;;;;;13.60;8.77;;;15.70;99.90;;;;;;5032975;28;20471;-69
2022/05/11 04:00:11;;;;;;;10.10;7.73;;;15.70;99.90;;;;;;5033204;28;20455;-69
2022/05/11 04:02:37;;;;;;;11.67;8.30;;;15.60;99.90;;;;;;5032597;28;20432;-68
2022/05/11 04:05:04;;;;;;;12.80;7.90;;;15.60;99.90;;;;;;5032472;28;20471;-70
2022/05/11 04:07:35;;;;;;;12.20;8.00;;;15.50;99.90;;;;;;5033187;28;20427;-70
2022/05/11 04:10:01;;;;;;;8.97;7.00;;;15.50;99.90;;;;;;5033290;28;20447;-68
2022/05/11 04:12:29;;;;;;;12.27;7.00;;;15.50;99.90;;;;;;5033237;28;20447;-70
2022/05/11 04:15:00;;;;;;;9.47;7.53;;;15.50;99.90;;;;;;5032491;28;20505;-68
2022/05/11 04:17:28;;;;;;;9.17;7.07;;;15.40;99.90;;;;;;5033089;28;20525;-70
2022/05/11 04:19:58;;;;;;;9.63;8.00;;;15.40;99.90;;;;;;5033988;28;20439;-70
2022/05/11 04:22:24;;;;;;;13.90;7.87;;;15.40;99.90;;;;;;5032814;28;20424;-68
2022/05/11 04:24:50;;;;;;;10.90;8.60;;;15.40;99.90;;;;;;5032497;28;20447;-69
2022/05/11 04:27:16;;;;;;;12.63;8.30;;;15.40;99.90;;;;;;5033058;28;20840;-69
2022/05/11 04:29:46;;;;;;;9.47;7.77;;;15.40;99.90;;;;;;5033030;28;20968;-70
2022/05/11 04:32:15;;;;;;;11.33;7.20;;;15.40;99.90;;;;;;5033099;28;20768;-70
2022/05/11 04:34:47;;;;;;;10.43;7.23;;;15.40;99.90;;;;;;5032716;28;20586;-70
2022/05/11 04:37:14;;;;;;;10.63;8.27;;;15.40;99.90;;;;;;5032901;28;20452;-68
2022/05/11 04:39:40;;;;;;;12.47;7.97;;;15.40;99.90;;;;;;5032553;28;20493;-68
2022/05/11 04:42:30;;;;;;;12.50;9.07;;;15.40;99.90;;;;;;5032480;28;20427;-70
2022/05/11 04:45:07;;;;;;;11.97;8.90;;;15.40;99.90;;;;;;5032813;28;21094;-69
2022/05/11 04:47:33;;;;;;;13.70;8.20;;;15.40;99.90;;;;;;5032083;28;20439;-70
2022/05/11 04:49:59;;;;;;;11.00;8.57;;;15.40;99.90;;;;;;5031320;28;20458;-68
2022/05/11 04:52:25;;;;;;;13.03;8.40;;;15.40;99.90;;;;;;5030411;28;20226;-68
2022/05/11 04:54:51;;;;;;;11.40;8.47;;;15.50;99.90;;;;;;5030605;28;20483;-68
2022/05/11 04:57:19;;;;;;;13.30;9.13;;;15.50;99.90;;;;;;5032459;28;20424;-70
2022/05/11 04:59:49;;;;;;;13.47;8.60;;;15.50;99.90;;;;;;5032385;28;20217;-68
2022/05/11 05:02:22;;;;;;;13.27;9.40;;;15.60;99.90;;;;;;5031698;28;20442;-70
2022/05/11 05:04:51;;;;;;;11.60;8.30;;;15.60;99.90;;;;;;5045947;28;20460;-70
2022/05/11 05:07:18;;;;;;;14.20;8.00;;;15.70;99.90;;;;;;5031937;28;20502;-68
2022/05/11 05:09:54;;;;;;;13.03;8.30;;;15.80;99.90;;;;;;5031576;28;20938;-68
2022/05/11 05:12:20;;;;;;;14.90;9.23;;;15.80;99.90;;;;;;5014256;28;20396;-68
2022/05/11 05:14:46;;;;;;;11.17;7.90;;;15.90;99.90;;;;;;5031474;28;20439;-68
2022/05/11 05:17:14;;;;;;;12.10;8.20;;;15.90;99.90;;;;;;5032412;28;20435;-68
2022/05/11 05:19:43;;;;;;;13.93;10.40;;;15.90;99.90;;;;;;5032237;28;20452;-68
2022/05/11 05:22:10;;;;;;;13.07;9.07;;;16.00;99.90;;;;;;5032230;28;20499;-68
2022/05/11 05:24:37;;;;;;;10.07;8.37;;;16.10;99.90;;;;;;5032351;28;20956;-68
2022/05/11 05:27:07;;;;;;;11.90;8.97;;;16.20;99.90;;;;;;5034531;28;20992;-70
2022/05/11 05:32:33;;;;;;;12.67;8.47;;;16.30;99.90;;;;;;5034555;28;20477;-70
2022/05/11 05:35:00;;;;;;;10.77;7.80;;;16.40;99.90;;;;;;5034509;28;20470;-68
2022/05/11 05:37:27;;;;;;;11.20;7.60;;;16.60;99.90;;;;;;5030560;28;20495;-70
2022/05/11 05:39:53;;;;;;;11.10;7.57;;;16.70;99.90;;;;;;5016454;28;20456;-68
2022/05/11 05:42:22;;;;;;;13.97;8.40;;;16.80;99.90;;;;;;5014023;28;20413;-70
2022/05/11 05:44:48;;;;;;;10.87;7.70;;;16.90;99.90;;;;;;5021166;28;20972;-68
2022/05/11 05:47:21;;;;;;;14.03;8.40;;;17.00;99.90;;;;;;5031562;28;20464;-68
2022/05/11 05:49:49;;;;;;;11.20;8.90;;;17.10;99.90;;;;;;5022658;28;20459;-70
2022/05/11 05:52:27;;;;;;;11.33;8.40;;;17.20;99.90;;;;;;5027676;28;20490;-70
2022/05/11 05:54:58;;;;;;;10.53;7.60;;;17.30;99.90;;;;;;5027067;28;20557;-70
2022/05/11 05:57:27;;;;;;;9.27;7.53;;;17.40;99.90;;;;;;5029143;28;20548;-68
2022/05/11 06:00:02;;;;;;;10.80;7.60;;;17.50;99.90;;;;;;5031631;28;20458;-70
2022/05/11 06:02:29;;;;;;;11.27;7.83;;;17.60;99.90;;;;;;5025173;28;20450;-68
2022/05/11 06:04:56;;;;;;;14.00;8.27;;;17.80;99.90;;;;;;5032795;28;20860;-70
2022/05/11 06:07:22;;;;;;;10.77;8.63;;;17.90;99.90;;;;;;5033845;28;20971;-68
2022/05/11 06:09:52;;;;;;;11.03;8.73;;;18.00;99.90;;;;;;5032390;28;20482;-68
2022/05/11 06:12:19;;;;;;;8.93;7.10;;;18.10;99.90;;;;;;5032648;28;20463;-71
2022/05/11 06:14:45;;;;;;;11.47;7.73;;;18.20;99.90;;;;;;5033594;28;20482;-69
2022/05/11 06:17:35;;;;;;;8.17;7.20;;;18.30;99.90;;;;;;5034102;28;20441;-68
2022/05/11 06:20:04;;;;;;;9.80;7.10;;;18.50;99.90;;;;;;5032822;28;20475;-69
2022/05/11 06:22:42;;;;;;;9.93;7.20;;;18.60;99.90;;;;;;5024665;28;20444;-70
2022/05/11 06:25:13;;;;;;;8.80;6.80;;;18.70;99.90;;;;;;5025136;28;20488;-68
2022/05/11 06:27:40;;;;;;;9.80;7.37;;;18.90;99.90;;;;;;5031819;28;20787;-70
2022/05/11 06:30:15;;;;;;;10.57;7.03;;;19.00;99.90;;;;;;5028858;28;20881;-68
2022/05/11 06:32:48;;;;;;;9.80;6.80;;;19.10;99.90;;;;;;5025319;28;21335;-68
2022/05/11 06:35:15;;;;;;;9.70;6.90;;;19.20;99.90;;;;;;5013965;28;20454;-68
2022/05/11 06:37:44;;;;;;;7.63;6.20;;;19.30;99.90;;;;;;5031495;28;20532;-70
2022/05/11 06:40:14;;;;;;;7.43;5.80;;;19.40;99.90;;;;;;5031761;28;20989;-68
2022/05/11 06:42:41;;;;;;;7.83;6.33;;;19.60;99.90;;;;;;5032084;28;20452;-71
2022/05/11 06:45:08;;;;;;;8.07;6.10;;;19.70;99.90;;;;;;5034696;28;20463;-68
2022/05/11 06:47:37;;;;;;;5.90;5.30;;;19.80;99.90;;;;;;5027520;28;20478;-70
2022/05/11 06:50:06;;;;;;;6.17;5.50;;;19.90;99.90;;;;;;5029734;28;20826;-69
2022/05/11 06:52:33;;;;;;;6.73;5.83;;;20.00;99.90;;;;;;5027872;28;20430;-68
2022/05/11 07:00:31;;;;;;;6.30;5.80;;;20.30;99.90;;;;;;5031179;28;20461;-69
2022/05/11 07:02:59;;;;;;;6.60;5.73;;;20.40;99.90;;;;;;5028423;28;20430;-70
2022/05/11 07:05:28;;;;;;;6.00;5.40;;;20.50;99.90;;;;;;5027991;28;20855;-71
2022/05/11 07:07:57;;;;;;;7.20;5.53;;;20.50;99.90;;;;;;5029756;28;20861;-71
2022/05/11 07:10:23;;;;;;;6.03;4.87;;;20.70;99.90;;;;;;5016395;28;20491;-68
2022/05/11 07:12:50;;;;;;;6.03;4.97;;;20.70;99.90;;;;;;5028928;28;20975;-69
2022/05/11 07:15:23;;;;;;;8.00;5.80;;;20.90;99.90;;;;;;5028191;28;20810;-70
2022/05/11 07:18:00;;;;;;;6.10;5.03;;;21.00;99.90;;;;;;5043484;28;20480;-68
2022/05/11 07:20:36;;;;;;;6.03;5.43;;;21.00;99.90;;;;;;5022655;28;20451;-70
2022/05/11 07:23:15;;;;;;;9.20;5.40;;;21.10;99.90;;;;;;5027894;28;20459;-70
2022/05/11 07:25:43;;;;;;;6.67;6.07;;;21.20;99.90;;;;;;5023273;28;20501;-69
2022/05/11 07:28:18;;;;;;;5.50;4.17;;;21.30;99.90;;;;;;5024743;28;20451;-72
2022/05/11 07:30:47;;;;;;;7.27;4.97;;;21.40;99.90;;;;;;5029093;28;21154;-68
2022/05/11 07:33:28;;;;;;;6.73;5.60;;;21.50;99.90;;;;;;5024256;28;20423;-70
2022/05/11 07:35:56;;;;;;;6.00;5.37;;;21.50;99.90;;;;;;5024778;28;20461;-70
2022/05/11 07:38:22;;;;;;;8.20;5.93;;;21.60;99.90;;;;;;5011231;28;20468;-70
2022/05/11 07:40:48;;;;;;;11.00;5.33;;;21.70;99.90;;;;;;5021527;28;21081;-68
2022/05/11 07:43:20;;;;;;;5.07;4.57;;;21.80;99.90;;;;;;5028452;28;20432;-70
2022/05/11 07:45:54;;;;;;;5.90;5.00;;;21.80;99.90;;;;;;5029993;28;20475;-71
2022/05/11 07:48:20;;;;;;;6.30;5.67;;;21.90;99.90;;;;;;5030674;28;20424;-71
2022/05/11 07:50:47;;;;;;;5.97;5.30;;;22.00;99.90;;;;;;5030315;28;20463;-72
2022/05/11 07:53:18;;;;;;;5.57;5.00;;;22.10;99.90;;;;;;5026279;28;20513;-70
2022/05/11 08:01:25;;;;;;;8.13;5.27;;;22.30;99.90;;;;;;5025280;28;20444;-70
2022/05/11 08:04:03;;;;;;;6.77;5.80;;;22.40;99.90;;;;;;5029049;28;20443;-69
2022/05/11 08:06:31;;;;;;;6.40;5.57;;;22.50;99.90;;;;;;5027312;28;20439;-68
2022/05/11 08:09:13;;;;;;;7.10;5.43;;;22.60;99.90;;;;;;5045685;28;20447;-69
2022/05/11 08:12:06;;;;;;;5.07;4.57;;;22.70;99.90;;;;;;5030689;28;20917;-69
2022/05/11 08:14:56;;;;;;;4.83;4.10;;;22.80;99.90;;;;;;5030400;28;20443;-70
2022/05/11 08:17:34;;;;;;;4.80;3.93;;;22.90;99.90;;;;;;5029277;28;20432;-69
2022/05/11 08:20:16;;;;;;;5.77;4.70;;;23.00;99.90;;;;;;5030952;28;20568;-69
2022/05/11 08:22:48;;;;;;;7.10;4.40;;;23.10;99.90;;;;;;5029530;28;20436;-71
2022/05/11 08:25:20;;;;;;;8.30;3.73;;;23.20;99.90;;;;;;5017366;28;20806;-71
2022/05/11 08:27:48;;;;;;;4.80;4.00;;;23.30;99.90;;;;;;5027401;28;20721;-68
2022/05/11 08:33:26;;;;;;;4.50;3.73;;;23.50;99.90;;;;;;5027817;28;20516;-69
2022/05/11 08:36:04;;;;;;;5.07;3.03;;;23.60;99.90;;;;;;5025832;28;20476;-70
2022/05/11 08:38:39;;;;;;;3.60;3.30;;;23.60;97.80;;;;;;5021861;28;20618;-71
2022/05/11 08:41:16;;;;;;;6.93;3.47;;;23.70;98.60;;;;;;5029838;28;20505;-69
2022/05/11 08:43:43;;;;;;;5.10;3.37;;;23.80;99.90;;;;;;5024144;28;21920;-68
2022/05/11 08:46:49;;;;;;;3.63;3.33;;;23.80;99.90;;;;;;5025618;28;20422;-70
2022/05/11 08:49:50;;;;;;;4.37;3.47;;;23.90;99.90;;;;;;4953305;28;20511;-68
2022/05/11 08:52:43;;;;;;;3.60;3.30;;;24.00;99.50;;;;;;5017583;28;20462;-70
2022/05/11 08:55:17;;;;;;;7.07;3.10;;;24.10;99.90;;;;;;5038743;28;20539;-68
2022/05/11 08:57:49;;;;;;;3.93;2.63;;;24.10;99.90;;;;;;5025199;28;20845;-70
2022/05/11 09:00:20;;;;;;;3.57;3.27;;;24.10;99.90;;;;;;5018122;28;20456;-70
2022/05/11 09:02:55;;;;;;;3.50;2.50;;;24.20;99.90;;;;;;5026427;28;20433;-71
2022/05/11 09:05:31;;;;;;;3.50;2.90;;;24.20;99.90;;;;;;5024607;28;20469;-68
2022/05/11 09:08:09;;;;;;;3.20;2.90;;;24.30;99.90;;;;;;5040113;28;20438;-70
2022/05/11 09:10:37;;;;;;;3.30;3.00;;;24.40;94.60;;;;;;5028554;28;20776;-68
2022/05/11 09:13:14;;;;;;;2.83;2.63;;;24.50;97.60;;;;;;5017640;28;20843;-70
2022/05/11 09:15:47;;;;;;;3.03;2.77;;;24.60;98.00;;;;;;5025766;28;20482;-68
2022/05/11 09:18:14;;;;;;;4.20;3.20;;;24.60;98.30;;;;;;5022766;28;21045;-69
2022/05/11 09:20:46;;;;;;;3.00;2.73;;;24.60;97.50;;;;;;5030861;28;20818;-68
2022/05/11 09:23:13;;;;;;;5.17;3.43;;;24.70;96.90;;;;;;5026570;28;20859;-68
2022/05/11 09:26:03;;;;;;;2.60;2.40;;;24.70;98.20;;;;;;5028230;28;20463;-70
2022/05/11 09:28:38;;;;;;;5.63;3.00;;;24.80;94.60;;;;;;5020538;28;20419;-70
2022/05/11 09:31:13;;;;;;;3.07;2.87;;;24.90;94.20;;;;;;5024996;28;20965;-70
2022/05/11 09:33:42;;;;;;;3.67;3.10;;;25.00;92.30;;;;;;5022704;28;20430;-70
2022/05/11 09:36:11;;;;;;;3.40;3.10;;;25.00;94.40;;;;;;5019947;28;20785;-68
2022/05/11 09:38:46;;;;;;;3.60;3.30;;;25.00;92.00;;;;;;5022851;28;20495;-70
2022/05/11 09:41:17;;;;;;;4.70;3.13;;;25.10;92.40;;;;;;5037365;28;20777;-70
2022/05/11 09:43:53;;;;;;;3.03;2.77;;;25.20;91.50;;;;;;5022047;28;20497;-69
2022/05/11 09:46:27;;;;;;;4.60;3.43;;;25.20;90.90;;;;;;5029841;28;20438;-69
2022/05/11 09:49:01;;;;;;;5.67;4.50;;;25.10;90.70;;;;;;5025440;28;20440;-71
2022/05/11 09:51:44;;;;;;;3.67;3.13;;;25.20;91.10;;;;;;5039802;28;21047;-69
2022/05/11 09:54:13;;;;;;;4.70;3.30;;;25.20;90.30;;;;;;5023286;28;20474;-71
2022/05/11 09:57:08;;;;;;;3.60;3.30;;;25.20;90.90;;;;;;5028178;28;20410;-69
2022/05/11 09:59:41;;;;;;;3.03;2.83;;;25.30;89.80;;;;;;5039266;28;20836;-70
2022/05/11 10:02:35;;;;;;;4.03;3.00;;;25.30;89.60;;;;;;5028755;28;20424;-69
2022/05/11 10:05:27;;;;;;;3.10;2.80;;;25.40;90.10;;;;;;5029004;28;20831;-68
2022/05/11 10:08:05;;;;;;;3.97;3.13;;;25.50;90.00;;;;;;5028290;28;20437;-71
2022/05/11 10:10:52;;;;;;;4.73;3.37;;;25.60;90.00;;;;;;5028544;28;20442;-72
2022/05/11 10:13:21;;;;;;;3.23;2.93;;;25.60;86.50;;;;;;5028702;28;20419;-69
2022/05/11 10:24:34;;;;;;;3.80;3.17;;;25.80;90.90;;;;;;5031037;28;20439;-71
2022/05/11 10:27:32;;;;;;;2.93;2.73;;;25.80;90.60;;;;;;5023888;28;20478;-71
2022/05/11 10:30:03;;;;;;;4.43;3.20;;;25.80;90.40;;;;;;5039448;28;20470;-72
2022/05/11 10:32:57;;;;;;;8.37;3.60;;;25.80;91.60;;;;;;5031100;28;20428;-70
2022/05/11 10:35:30;;;;;;;3.67;3.10;;;25.80;87.10;;;;;;5035625;28;20550;-71
2022/05/11 10:38:09;;;;;;;4.40;4.00;;;25.80;86.60;;;;;;5032588;28;20479;-69
2022/05/11 10:41:10;;;;;;;3.73;3.43;;;25.80;87.00;;;;;;5030063;28;20467;-69
2022/05/11 10:44:04;;;;;;;5.37;3.30;;;25.80;86.30;;;;;;5029357;28;20807;-71
2022/05/11 10:47:09;;;;;;;3.47;3.17;;;25.80;88.50;;;;;;5036413;28;20439;-71
2022/05/11 10:50:12;;;;;;;3.90;3.60;;;25.80;88.60;;;;;;5018004;28;20475;-72
2022/05/11 10:53:16;;;;;;;4.03;3.60;;;25.90;87.10;;;;;;5021590;28;20476;-70
2022/05/11 10:56:01;;;;;;;4.13;3.73;;;25.90;87.80;;;;;;5027402;28;21036;-69
2022/05/11 10:58:51;;;;;;;4.07;3.40;;;25.90;85.80;;;;;;5026833;28;20487;-71
2022/05/11 11:01:17;;;;;;;3.57;3.00;;;25.90;83.80;;;;;;5014931;28;20442;-69
2022/05/11 11:03:52;;;;;;;3.37;3.10;;;25.80;84.10;;;;;;5025401;28;20510;-69
2022/05/11 11:10:04;;;;;;;3.50;3.20;;;25.90;83.50;;;;;;5027127;28;20578;-68
2022/05/11 11:12:31;;;;;;;5.60;3.33;;;26.00;86.00;;;;;;4990088;28;20443;-70
2022/05/11 11:15:05;;;;;;;5.10;3.40;;;26.00;86.70;;;;;;5024989;28;20619;-69
2022/05/11 11:18:09;;;;;;;7.00;3.40;;;26.00;85.50;;;;;;5026851;28;20458;-68
2022/05/11 11:20:46;;;;;;;5.27;4.10;;;26.00;85.10;;;;;;5025217;28;20467;-70
2022/05/11 11:23:22;;;;;;;3.17;2.97;;;26.10;86.00;;;;;;5027518;28;20434;-71
2022/05/11 11:26:12;;;;;;;4.53;3.30;;;26.10;85.40;;;;;;5022310;28;20502;-69
2022/05/11 11:28:41;;;;;;;5.00;3.77;;;26.10;85.40;;;;;;5028511;28;20522;-68
2022/05/11 11:31:10;;;;;;;4.53;3.50;;;26.20;85.00;;;;;;5027854;28;20497;-70
2022/05/11 11:33:55;;;;;;;3.73;3.27;;;26.20;85.10;;;;;;5026666;28;20447;-71
2022/05/11 11:36:40;;;;;;;4.17;3.20;;;26.20;85.60;;;;;;5029760;28;20435;-71
2022/05/11 11:39:52;;;;;;;3.27;2.97;;;26.20;85.90;;;;;;5041558;28;20494;-69
2022/05/11 11:42:43;;;;;;;3.47;3.27;;;26.30;85.20;;;;;;5043427;28;20505;-69
2022/05/11 11:45:35;;;;;;;4.07;3.47;;;26.30;86.30;;;;;;5028586;28;20462;-68
2022/05/11 11:48:26;;;;;;;3.93;3.53;;;26.40;84.90;;;;;;5017940;28;20502;-70
2022/05/11 11:51:00;;;;;;;3.60;3.30;;;26.40;84.50;;;;;;5041546;28;20963;-68
2022/05/11 11:53:55;;;;;;;4.27;3.80;;;26.40;84.10;;;;;;5027253;28;20430;-69
2022/05/11 11:56:25;;;;;;;3.90;3.50;;;26.40;84.30;;;;;;5028816;28;20961;-68
2022/05/11 11:59:04;;;;;;;3.50;3.20;;;26.40;85.30;;;;;;5029077;28;20463;-70
2022/05/11 12:01:35;;;;;;;4.00;3.13;;;26.40;85.00;;;;;;5026996;28;20427;-68
2022/05/11 12:04:10;;;;;;;3.50;3.27;;;26.40;86.20;;;;;;5025994;28;20513;-68
2022/05/11 12:15:33;;;;;;;3.87;3.17;;;26.50;85.70;;;;;;5028292;28;20466;-70
2022/05/11 12:18:02;;;;;;;4.93;3.60;;;26.60;85.60;;;;;;5020845;28;21256;-68
2022/05/11 12:20:48;;;;;;;4.17;3.60;;;26.60;85.00;;;;;;5026878;28;20448;-68
2022/05/11 12:23:26;;;;;;;22.70;16.77;;;26.70;85.80;;;;;;5027451;28;20774;-68
2022/05/11 12:26:02;;;;;;;5.33;4.30;;;26.70;85.50;;;;;;5026305;28;20471;-70
2022/05/11 12:28:45;;;;;;;7.07;6.37;;;26.80;84.60;;;;;;5027827;28;20495;-68
2022/05/11 12:31:42;;;;;;;4.50;4.07;;;26.80;84.30;;;;;;5025916;28;20432;-68
2022/05/11 12:34:31;;;;;;;3.93;3.47;;;26.70;82.80;;;;;;5024328;28;20460;-69
2022/05/11 12:37:32;;;;;;;3.30;3.10;;;26.70;82.90;;;;;;5040368;28;20463;-69
2022/05/11 12:40:00;;;;;;;3.60;3.30;;;26.60;83.00;;;;;;5027013;28;20480;-72
2022/05/11 12:42:39;;;;;;;3.80;3.40;;;26.60;83.40;;;;;;5027721;28;20470;-71
2022/05/11 12:45:18;;;;;;;4.10;3.80;;;26.60;83.40;;;;;;5027024;28;20466;-71
2022/05/11 12:47:56;;;;;;;3.70;3.40;;;26.70;84.80;;;;;;5025597;28;20435;-69
2022/05/11 12:50:37;;;;;;;3.33;3.13;;;26.70;84.10;;;;;;5027477;28;20566;-72
2022/05/11 12:53:03;;;;;;;4.20;3.90;;;26.70;83.80;;;;;;5019434;28;20428;-71
2022/05/11 12:56:11;;;;;;;3.97;3.63;;;26.70;83.90;;;;;;5026415;28;20550;-70
2022/05/11 12:58:50;;;;;;;3.40;3.10;;;26.70;83.60;;;;;;5017026;28;20464;-70
2022/05/11 13:01:21;;;;;;;3.23;3.03;;;26.60;82.10;;;;;;5012931;28;20427;-71
2022/05/11 13:03:50;;;;;;;3.83;3.53;;;26.60;81.70;;;;;;5009951;28;20440;-69
2022/05/11 13:06:51;;;;;;;3.73;3.43;;;26.60;83.40;;;;;;5017658;28;20526;-71
2022/05/11 13:10:43;;;;;;;3.63;3.33;;;26.60;82.80;;;;;;5028298;28;20577;-69
2022/05/11 13:16:21;;;;;;;3.10;2.80;;;26.70;82.80;;;;;;5138025;22;20780;-93
2022/05/11 13:18:47;;;;;;;2.80;2.40;;;26.70;80.80;;;;;;4980512;28;20544;-92
2022/05/11 13:21:23;;;;;;;3.57;2.60;;;26.80;83.40;;;;;;5007297;28;20486;-90
2022/05/11 13:23:50;;;;;;;3.27;2.97;;;26.90;81.60;;;;;;5011223;28;20412;-93
2022/05/11 13:26:41;;;;;;;2.70;2.50;;;26.90;80.50;;;;;;4991237;28;20950;-92
2022/05/11 13:29:23;;;;;;;2.90;2.70;;;26.90;79.60;;;;;;5009098;28;20448;-92
2022/05/11 13:32:09;;;;;;;3.27;2.97;;;26.90;76.70;;;;;;4992441;28;20464;-93
2022/05/11 13:34:41;;;;;;;3.77;3.07;;;26.80;76.10;;;;;;4993530;28;20460;-92
2022/05/11 13:37:26;;;;;;;3.23;2.80;;;26.70;76.80;;;;;;4993275;28;20486;-90
2022/05/11 13:39:52;;;;;;;2.73;2.53;;;26.70;76.60;;;;;;4994951;28;20853;-91
2022/05/11 13:42:24;;;;;;;3.30;2.83;;;26.70;78.40;;;;;;4993427;28;20484;-93
2022/05/11 13:44:53;;;;;;;2.80;2.60;;;26.70;78.80;;;;;;4976943;28;20437;-92
2022/05/11 13:50:50;;;;;;;3.30;3.00;;;26.80;79.90;;;;;;4935276;29;20432;-92
2022/05/11 13:53:16;;;;;;;2.77;2.57;;;26.80;80.90;;;;;;4913854;29;20543;-91
2022/05/11 13:55:45;;;;;;;2.60;2.40;;;26.90;81.00;;;;;;4945717;28;20444;-92
2022/05/11 13:58:23;;;;;;;2.93;2.73;;;26.90;82.40;;;;;;5011629;28;20468;-93
2022/05/11 14:00:58;;;;;;;2.83;2.50;;;26.90;81.10;;;;;;4993774;28;20460;-93
2022/05/11 14:03:29;;;;;;;3.30;3.00;;;26.90;79.70;;;;;;4992980;28;20428;-93
2022/05/11 14:05:56;;;;;;;4.50;2.80;;;27.00;78.30;;;;;;4974964;28;20465;-90
2022/05/11 14:08:22;;;;;;;2.93;2.33;;;27.00;78.20;;;;;;4989686;28;20487;-91
2022/05/11 14:10:50;;;;;;;3.23;3.00;;;27.10;76.30;;;;;;4996188;28;20472;-91
2022/05/11 14:13:17;;;;;;;2.63;2.43;;;27.10;77.00;;;;;;5002087;28;20195;-92